createdAt,value
2022-11-26T00:02:22.671Z,11.82
2022-11-26T00:04:51.714Z,11.60
2022-11-26T00:07:24.144Z,12.85
2022-11-26T00:09:54.073Z,12.13
2022-11-26T00:12:25.118Z,11.43
2022-11-26T00:14:53.594Z,11.52
2022-11-26T00:17:23.802Z,11.63
2022-11-26T00:19:51.977Z,12.63
2022-11-26T00:22:27.399Z,13.57
2022-11-26T00:24:56.346Z,11.93
2022-11-26T00:27:27.690Z,12.95
2022-11-26T00:29:56.648Z,13.13
2022-11-26T00:32:27.550Z,14.02
2022-11-26T00:34:55.866Z,14.30
2022-11-26T00:37:27.208Z,16.10
2022-11-26T00:39:55.935Z,19.65
2022-11-26T00:42:24.374Z,18.63
2022-11-26T00:44:52.693Z,15.73
2022-11-26T00:47:21.113Z,14.93
2022-11-26T00:49:53.097Z,13.85
2022-11-26T00:52:29.616Z,13.65
2022-11-26T00:54:57.815Z,13.73
2022-11-26T00:57:26.121Z,13.88
2022-11-26T00:59:54.430Z,13.75
2022-11-26T01:02:22.940Z,13.88
2022-11-26T01:04:52.867Z,14.82
2022-11-26T01:07:21.245Z,12.85
2022-11-26T01:09:51.263Z,12.05
2022-11-26T01:12:19.648Z,12.30
2022-11-26T01:14:47.706Z,12.05
2022-11-26T01:17:15.703Z,12.88
2022-11-26T01:19:43.698Z,12.80
2022-11-26T01:22:21.458Z,12.88
2022-11-26T01:24:50.334Z,12.55
2022-11-26T01:27:21.037Z,12.38
2022-11-26T01:29:49.181Z,12.90
2022-11-26T01:32:17.144Z,11.40
2022-11-26T01:34:45.210Z,12.68
2022-11-26T01:37:15.637Z,10.55
2022-11-26T01:39:43.744Z,9.43
2022-11-26T01:42:25.713Z,10.18
2022-11-26T01:44:55.077Z,9.70
2022-11-26T01:47:25.525Z,8.98
2022-11-26T01:50:31.090Z,9.40
2022-11-26T01:53:03.623Z,9.27
2022-11-26T01:55:37.252Z,8.75
2022-11-26T01:58:08.609Z,8.43
2022-11-26T02:00:36.638Z,7.68
2022-11-26T02:03:05.943Z,7.40
2022-11-26T02:05:41.027Z,6.68
2022-11-26T02:08:13.865Z,5.60
2022-11-26T02:10:42.532Z,7.05
2022-11-26T02:13:10.582Z,6.25
2022-11-26T02:15:46.179Z,6.57
2022-11-26T02:18:14.551Z,6.75
2022-11-26T02:20:52.408Z,6.53
2022-11-26T02:23:51.232Z,6.63
2022-11-26T02:26:52.753Z,6.85
2022-11-26T02:29:26.892Z,5.70
2022-11-26T02:32:01.878Z,6.20
2022-11-26T02:34:40.345Z,6.07
2022-11-26T02:37:14.636Z,5.60
2022-11-26T02:39:42.956Z,6.00
2022-11-26T02:42:26.178Z,5.85
2022-11-26T02:44:59.260Z,5.85
2022-11-26T02:50:00.635Z,5.70
2022-11-26T02:52:30.774Z,6.40
2022-11-26T02:55:00.019Z,6.50
2022-11-26T02:57:32.462Z,6.95
2022-11-26T03:00:00.476Z,6.65
2022-11-26T03:02:38.347Z,5.78
2022-11-26T03:05:09.168Z,7.07
2022-11-26T03:07:38.755Z,7.10
2022-11-26T03:10:08.618Z,6.18
2022-11-26T03:12:36.937Z,5.63
2022-11-26T03:15:05.448Z,6.55
2022-11-26T03:17:35.787Z,6.40
2022-11-26T03:20:04.819Z,5.60
2022-11-26T03:22:33.046Z,5.47
2022-11-26T03:25:01.454Z,6.55
2022-11-26T03:27:29.368Z,6.25
2022-11-26T03:29:58.001Z,7.05
2022-11-26T03:32:26.446Z,6.60
2022-11-26T03:34:56.059Z,6.22
2022-11-26T03:37:24.135Z,7.25
2022-11-26T03:39:52.398Z,7.38
2022-11-26T03:42:20.391Z,7.43
2022-11-26T03:44:49.065Z,7.20
2022-11-26T03:47:17.084Z,8.15
2022-11-26T03:49:45.498Z,7.15
2022-11-26T03:52:15.163Z,6.72
2022-11-26T03:54:43.453Z,6.75
2022-11-26T03:57:11.515Z,6.88
2022-11-26T03:59:39.830Z,6.65
2022-11-26T04:02:07.863Z,6.80
2022-11-26T04:04:36.754Z,6.20
2022-11-26T04:07:06.232Z,7.88
2022-11-26T04:09:35.952Z,6.57
2022-11-26T04:12:04.043Z,6.55
2022-11-26T04:14:32.302Z,6.93
2022-11-26T04:17:00.624Z,7.50
2022-11-26T04:19:28.972Z,6.65
2022-11-26T04:21:56.906Z,6.75
2022-11-26T04:24:24.986Z,6.90
2022-11-26T04:26:54.661Z,7.60
2022-11-26T04:29:22.702Z,8.20
2022-11-26T04:31:51.390Z,7.05
2022-11-26T04:34:19.406Z,7.20
2022-11-26T04:36:51.197Z,7.38
2022-11-26T04:39:24.558Z,7.43
2022-11-26T04:44:25.710Z,9.18
2022-11-26T04:46:54.905Z,7.55
2022-11-26T04:49:23.493Z,6.82
2022-11-26T04:51:51.972Z,7.45
2022-11-26T04:54:21.831Z,6.68
2022-11-26T04:56:51.365Z,7.68
2022-11-26T04:59:19.641Z,6.93
2022-11-26T05:01:51.012Z,7.13
2022-11-26T05:04:21.814Z,8.05
2022-11-26T05:06:50.331Z,7.55
2022-11-26T05:09:22.309Z,7.78
2022-11-26T05:11:50.529Z,7.32
2022-11-26T05:14:20.553Z,8.82
2022-11-26T05:16:51.255Z,7.50
2022-11-26T05:19:21.407Z,8.10
2022-11-26T05:21:52.299Z,7.88
2022-11-26T05:24:24.867Z,7.95
2022-11-26T05:26:57.373Z,8.40
2022-11-26T05:29:26.217Z,8.20
2022-11-26T05:31:55.513Z,8.00
2022-11-26T05:34:24.407Z,7.70
2022-11-26T05:36:53.434Z,7.07
2022-11-26T05:39:22.166Z,8.05
2022-11-26T05:41:53.761Z,7.97
2022-11-26T05:44:22.017Z,8.63
2022-11-26T05:46:50.115Z,7.35
2022-11-26T05:49:20.609Z,8.27
2022-11-26T05:51:49.514Z,7.32
2022-11-26T05:54:21.088Z,8.43
2022-11-26T05:56:56.911Z,8.18
2022-11-26T05:59:31.412Z,8.10
2022-11-26T06:02:00.761Z,8.88
2022-11-26T06:04:32.028Z,8.93
2022-11-26T06:07:10.466Z,7.90
2022-11-26T06:09:39.917Z,8.20
2022-11-26T06:12:11.646Z,7.85
2022-11-26T06:14:43.869Z,8.27
2022-11-26T06:17:21.097Z,9.45
2022-11-26T06:19:54.633Z,9.02
2022-11-26T06:22:30.293Z,7.75
2022-11-26T06:24:59.555Z,7.30
2022-11-26T06:27:32.436Z,7.40
2022-11-26T06:32:45.262Z,7.15
2022-11-26T06:35:23.608Z,7.90
2022-11-26T06:37:55.982Z,6.65
2022-11-26T06:40:26.477Z,7.28
2022-11-26T06:43:02.129Z,7.70
2022-11-26T06:45:40.286Z,7.65
2022-11-26T06:48:25.046Z,8.07
2022-11-26T06:50:56.325Z,9.30
2022-11-26T06:53:26.122Z,9.02
2022-11-26T06:55:58.091Z,9.00
2022-11-26T06:58:33.365Z,9.55
2022-11-26T07:01:05.702Z,11.50
2022-11-26T07:03:36.713Z,12.65
2022-11-26T07:06:22.426Z,13.18
2022-11-26T07:09:04.658Z,13.90
2022-11-26T07:11:43.897Z,13.60
2022-11-26T07:14:17.679Z,10.20
2022-11-26T07:16:50.860Z,9.55
2022-11-26T07:19:25.700Z,9.02
2022-11-26T07:22:01.031Z,9.60
2022-11-26T07:24:31.908Z,9.45
2022-11-26T07:27:21.335Z,9.57
2022-11-26T07:30:09.046Z,10.30
2022-11-26T07:32:41.501Z,8.88
2022-11-26T07:35:10.046Z,9.73
2022-11-26T07:37:50.583Z,10.27
2022-11-26T07:40:20.170Z,10.30
2022-11-26T07:42:53.176Z,9.65
2022-11-26T07:45:24.468Z,9.35
2022-11-26T07:47:56.151Z,8.30
2022-11-26T07:50:30.839Z,9.45
2022-11-26T07:53:01.258Z,8.32
2022-11-26T07:55:30.512Z,7.32
2022-11-26T07:58:02.071Z,7.00
2022-11-26T08:00:30.285Z,7.05
2022-11-26T08:02:58.532Z,7.07
2022-11-26T08:05:26.761Z,7.70
2022-11-26T08:07:58.071Z,6.97
2022-11-26T08:10:31.948Z,6.43
2022-11-26T08:13:00.114Z,7.10
2022-11-26T08:15:33.558Z,7.55
2022-11-26T08:18:03.443Z,7.50
2022-11-26T08:20:34.107Z,7.72
2022-11-26T08:23:02.276Z,7.88
2022-11-26T08:25:32.219Z,11.02
2022-11-26T08:28:03.174Z,11.27
2022-11-26T08:30:31.402Z,11.95
2022-11-26T08:32:59.534Z,12.45
2022-11-26T08:36:05.499Z,11.60
2022-11-26T08:38:33.289Z,10.23
2022-11-26T08:41:10.956Z,9.38
2022-11-26T08:44:05.129Z,9.35
2022-11-26T08:46:28.626Z,8.27
2022-11-26T08:48:57.610Z,9.48
2022-11-26T08:51:26.147Z,9.38
2022-11-26T08:53:54.941Z,10.88
2022-11-26T08:56:27.321Z,7.75
2022-11-26T08:58:55.650Z,7.95
2022-11-26T09:01:26.513Z,7.35
2022-11-26T09:04:00.159Z,7.63
2022-11-26T09:06:31.270Z,7.85
2022-11-26T09:09:14.516Z,7.65
2022-11-26T09:11:50.223Z,6.20
2022-11-26T09:14:21.653Z,6.78
2022-11-26T09:16:50.068Z,6.38
2022-11-26T09:19:19.328Z,6.25
2022-11-26T09:21:50.088Z,8.93
2022-11-26T09:24:19.608Z,5.97
2022-11-26T09:26:50.929Z,6.35
2022-11-26T09:29:21.581Z,5.95
2022-11-26T09:34:40.820Z,5.63
2022-11-26T09:37:09.576Z,5.45
2022-11-26T09:39:39.036Z,6.40
2022-11-26T09:42:22.523Z,5.95
2022-11-26T09:45:15.384Z,8.32
2022-11-26T09:47:50.725Z,7.28
2022-11-26T09:50:27.068Z,5.90
2022-11-26T09:53:00.006Z,5.22
2022-11-26T09:55:33.478Z,5.35
2022-11-26T09:58:13.932Z,5.53
2022-11-26T10:00:47.785Z,5.68
2022-11-26T10:03:18.736Z,5.85
2022-11-26T10:05:52.947Z,5.65
2022-11-26T10:08:36.298Z,6.70
2022-11-26T10:13:45.639Z,6.03
2022-11-26T10:16:26.376Z,6.28
2022-11-26T10:19:03.259Z,6.30
2022-11-26T10:21:58.298Z,6.78
2022-11-26T10:24:30.383Z,6.28
2022-11-26T10:27:11.651Z,7.03
2022-11-26T10:29:44.190Z,6.13
2022-11-26T10:32:17.427Z,7.57
2022-11-26T10:34:52.069Z,6.63
2022-11-26T10:37:22.430Z,6.55
2022-11-26T10:39:56.774Z,5.15
2022-11-26T10:42:27.324Z,5.43
2022-11-26T10:44:57.054Z,5.30
2022-11-26T10:47:28.317Z,5.07
2022-11-26T10:53:07.689Z,4.90
2022-11-26T10:58:15.702Z,5.88
2022-11-26T11:00:55.488Z,10.43
2022-11-26T11:03:51.832Z,10.32
2022-11-26T11:06:28.900Z,7.93
2022-11-26T11:08:56.847Z,6.60
2022-11-26T11:11:26.839Z,7.30
2022-11-26T11:13:55.814Z,6.95
2022-11-26T11:16:29.902Z,7.03
2022-11-26T11:19:02.470Z,6.57
2022-11-26T11:21:34.847Z,6.28
2022-11-26T11:24:14.711Z,7.25
2022-11-26T11:26:45.214Z,6.55
2022-11-26T11:29:27.732Z,6.88
2022-11-26T11:31:58.966Z,6.23
2022-11-26T11:34:31.640Z,6.85
2022-11-26T11:37:01.497Z,7.40
2022-11-26T11:39:31.659Z,6.68
2022-11-26T11:42:02.404Z,5.80
2022-11-26T11:44:39.645Z,8.38
2022-11-26T11:47:25.252Z,8.00
2022-11-26T11:50:13.403Z,7.75
2022-11-26T11:52:49.332Z,8.40
2022-11-26T11:55:26.641Z,8.32
2022-11-26T11:58:24.173Z,7.82
2022-11-26T12:00:57.103Z,5.90
2022-11-26T12:03:49.937Z,7.40
2022-11-26T12:06:24.984Z,6.38
2022-11-26T12:09:04.194Z,6.80
2022-11-26T12:11:41.465Z,7.35
2022-11-26T12:14:19.138Z,7.30
2022-11-26T12:16:50.379Z,7.75
2022-11-26T12:19:29.086Z,7.00
2022-11-26T12:22:02.813Z,7.03
2022-11-26T12:24:40.592Z,7.40
2022-11-26T12:27:17.743Z,7.18
2022-11-26T12:29:50.829Z,7.57
2022-11-26T12:34:53.120Z,6.97
2022-11-26T12:37:24.614Z,7.53
2022-11-26T12:39:58.168Z,7.30
2022-11-26T12:42:31.644Z,6.85
2022-11-26T12:45:17.403Z,6.80
2022-11-26T12:47:53.513Z,7.38
2022-11-26T12:50:35.067Z,7.25
2022-11-26T12:53:16.608Z,7.55
2022-11-26T12:55:50.413Z,7.05
2022-11-26T12:58:22.350Z,7.35
2022-11-26T13:00:54.107Z,7.03
2022-11-26T13:03:30.888Z,6.95
2022-11-26T13:06:04.960Z,7.28
2022-11-26T13:08:47.387Z,6.63
2022-11-26T13:11:31.780Z,7.13
2022-11-26T13:14:09.388Z,7.85
2022-11-26T13:16:45.811Z,6.90
2022-11-26T13:19:21.537Z,6.97
2022-11-26T13:22:16.576Z,6.68
2022-11-26T13:25:03.022Z,6.80
2022-11-26T13:27:50.008Z,6.82
2022-11-26T13:30:22.621Z,6.38
2022-11-26T13:33:16.840Z,7.30
2022-11-26T13:36:26.390Z,7.40
2022-11-26T13:39:10.579Z,7.28
2022-11-26T13:41:59.889Z,7.07
2022-11-26T13:44:59.820Z,6.45
2022-11-26T13:47:33.041Z,6.13
2022-11-26T13:50:05.746Z,6.30
2022-11-26T13:52:44.269Z,7.00
2022-11-26T13:55:21.000Z,7.25
2022-11-26T13:57:55.219Z,6.72
2022-11-26T14:00:28.788Z,6.82
2022-11-26T14:02:57.931Z,6.35
2022-11-26T14:06:08.201Z,6.65
2022-11-26T14:08:38.390Z,6.50
2022-11-26T14:11:08.504Z,6.82
2022-11-26T14:13:36.554Z,8.43
2022-11-26T14:16:07.768Z,7.93
2022-11-26T14:19:01.471Z,7.35
2022-11-26T14:24:00.943Z,8.05
2022-11-26T14:26:34.514Z,6.90
2022-11-26T14:29:13.213Z,7.55
2022-11-26T14:31:47.494Z,8.32
2022-11-26T14:34:21.055Z,8.68
2022-11-26T14:36:56.529Z,9.25
2022-11-26T14:39:25.183Z,11.02
2022-11-26T14:42:03.781Z,10.43
2022-11-26T14:44:34.623Z,8.82
2022-11-26T14:47:10.931Z,9.10
2022-11-26T14:49:41.632Z,9.40
2022-11-26T14:52:19.458Z,9.93
2022-11-26T14:54:50.277Z,8.43
2022-11-26T14:57:24.827Z,8.13
2022-11-26T14:59:57.630Z,8.90
2022-11-26T15:02:28.026Z,8.52
2022-11-26T15:05:01.003Z,8.98
2022-11-26T15:07:30.499Z,9.63
2022-11-26T15:10:04.051Z,9.88
2022-11-26T15:12:35.033Z,10.80
2022-11-26T15:15:05.523Z,9.85
2022-11-26T15:17:35.407Z,9.35
2022-11-26T15:20:08.270Z,7.90
2022-11-26T15:22:39.380Z,9.35
2022-11-26T15:25:15.521Z,9.05
2022-11-26T15:27:55.148Z,9.05
2022-11-26T15:30:27.096Z,9.45
2022-11-26T15:33:02.557Z,8.50
2022-11-26T15:35:33.234Z,9.23
2022-11-26T15:38:01.788Z,9.85
2022-11-26T15:40:32.686Z,9.50
2022-11-26T15:43:04.567Z,9.07
2022-11-26T15:45:39.184Z,8.73
2022-11-26T15:48:09.037Z,9.68
2022-11-26T15:50:38.711Z,9.95
2022-11-26T15:53:15.335Z,9.68
2022-11-26T15:55:48.552Z,9.38
2022-11-26T15:58:23.177Z,9.80
2022-11-26T16:00:53.852Z,9.95
2022-11-26T16:03:41.634Z,11.23
2022-11-26T16:06:29.857Z,10.02
2022-11-26T16:09:04.218Z,10.48
2022-11-26T16:11:36.638Z,10.20
2022-11-26T16:14:29.730Z,10.10
2022-11-26T16:17:02.468Z,10.90
2022-11-26T16:19:36.047Z,10.70
2022-11-26T16:22:05.829Z,11.95
2022-11-26T16:24:39.247Z,13.55
2022-11-26T16:27:25.943Z,13.38
2022-11-26T16:29:55.254Z,11.55
2022-11-26T16:32:23.994Z,11.57
2022-11-26T16:34:52.289Z,12.38
2022-11-26T16:37:23.235Z,12.82
2022-11-26T16:39:52.699Z,12.27
2022-11-26T16:42:23.472Z,12.05
2022-11-26T16:44:52.803Z,11.30
2022-11-26T16:47:25.621Z,11.32
2022-11-26T16:49:54.099Z,10.77
2022-11-26T16:52:22.629Z,11.85
2022-11-26T16:54:51.933Z,9.85
2022-11-26T16:57:22.668Z,9.90
2022-11-26T16:59:53.140Z,10.88
2022-11-26T17:02:26.570Z,10.10
2022-11-26T17:04:55.100Z,9.27
2022-11-26T17:07:26.148Z,10.80
2022-11-26T17:09:54.595Z,13.25
2022-11-26T17:12:25.522Z,13.57
2022-11-26T17:14:53.835Z,13.40
2022-11-26T17:17:26.274Z,14.60
2022-11-26T17:19:54.447Z,14.65
2022-11-26T17:22:22.794Z,14.13
2022-11-26T17:24:50.829Z,15.13
2022-11-26T17:27:24.596Z,10.32
2022-11-26T17:29:52.891Z,11.30
2022-11-26T17:32:21.707Z,10.40
2022-11-26T17:34:53.055Z,11.90
2022-11-26T17:37:24.922Z,11.40
2022-11-26T17:39:53.326Z,12.20
2022-11-26T17:42:23.037Z,12.13
2022-11-26T17:44:51.632Z,11.48
2022-11-26T17:47:21.904Z,10.52
2022-11-26T17:49:52.045Z,10.65
2022-11-26T17:52:21.079Z,12.48
2022-11-26T17:54:49.090Z,11.82
2022-11-26T17:57:18.494Z,13.93
2022-11-26T17:59:46.630Z,12.93
2022-11-26T18:02:14.969Z,12.75
2022-11-26T18:04:43.764Z,13.65
2022-11-26T18:07:15.957Z,12.95
2022-11-26T18:09:44.457Z,12.83
2022-11-26T18:12:24.364Z,12.60
2022-11-26T18:14:53.994Z,12.65
2022-11-26T18:17:22.828Z,15.30
2022-11-26T18:19:51.132Z,15.45
2022-11-26T18:22:25.730Z,18.90
2022-11-26T18:24:56.860Z,18.52
2022-11-26T18:27:27.265Z,18.70
2022-11-26T18:29:56.482Z,17.83
2022-11-26T18:32:25.370Z,18.00
2022-11-26T18:34:53.675Z,15.52
2022-11-26T18:37:23.405Z,15.65
2022-11-26T18:39:51.398Z,15.88
2022-11-26T18:42:36.714Z,15.07
2022-11-26T18:45:09.470Z,14.98
2022-11-26T18:47:37.922Z,13.68
2022-11-26T18:50:07.164Z,13.70
2022-11-26T18:52:42.104Z,15.93
2022-11-26T18:55:11.733Z,14.23
2022-11-26T18:57:39.769Z,14.02
2022-11-26T19:00:10.962Z,14.88
2022-11-26T19:02:39.065Z,15.15
2022-11-26T19:05:08.240Z,15.30
2022-11-26T19:07:40.166Z,14.27
2022-11-26T19:10:09.637Z,15.00
2022-11-26T19:12:37.893Z,14.73
2022-11-26T19:15:07.467Z,16.38
2022-11-26T19:17:35.887Z,15.40
2022-11-26T19:20:04.492Z,25.35
2022-11-26T19:22:32.927Z,24.98
2022-11-26T19:25:02.769Z,24.45
2022-11-26T19:27:31.078Z,24.10
2022-11-26T19:29:59.169Z,23.60
2022-11-26T19:32:27.858Z,23.50
2022-11-26T19:34:58.132Z,22.92
2022-11-26T19:37:30.578Z,22.63
2022-11-26T19:39:58.962Z,22.23
2022-11-26T19:42:30.210Z,24.23
2022-11-26T19:44:58.370Z,29.70
2022-11-26T19:47:26.394Z,28.85
2022-11-26T19:49:54.848Z,29.55
2022-11-26T19:52:23.526Z,28.90
2022-11-26T19:54:51.531Z,28.13
2022-11-26T19:57:21.130Z,26.08
2022-11-26T19:59:51.376Z,27.88
2022-11-26T20:02:19.730Z,26.38
2022-11-26T20:04:48.611Z,24.15
2022-11-26T20:07:19.854Z,21.55
2022-11-26T20:09:51.982Z,21.13
2022-11-26T20:12:20.854Z,19.10
2022-11-26T20:14:51.973Z,20.08
2022-11-26T20:17:20.962Z,21.60
2022-11-26T20:19:49.455Z,19.55
2022-11-26T20:22:18.268Z,18.42
2022-11-26T20:24:48.179Z,19.27
2022-11-26T20:27:35.640Z,21.10
2022-11-26T20:30:12.096Z,23.83
2022-11-26T20:32:51.007Z,37.92
2022-11-26T20:35:24.773Z,36.53
2022-11-26T20:37:54.814Z,33.17
2022-11-26T20:40:25.514Z,31.90
2022-11-26T20:43:03.584Z,34.15
2022-11-26T20:45:41.119Z,28.23
2022-11-26T20:48:14.207Z,28.35
2022-11-26T20:50:53.171Z,26.95
2022-11-26T20:53:22.750Z,21.65
2022-11-26T20:55:56.885Z,20.80
2022-11-26T20:58:33.393Z,22.33
2022-11-26T21:01:09.596Z,23.25
2022-11-26T21:03:46.559Z,23.40
2022-11-26T21:06:18.700Z,24.80
2022-11-26T21:08:53.140Z,25.33
2022-11-26T21:11:23.031Z,25.48
2022-11-26T21:13:56.033Z,24.83
2022-11-26T21:19:12.557Z,29.77
2022-11-26T21:21:40.890Z,34.10
2022-11-26T21:24:10.031Z,33.15
2022-11-26T21:26:38.552Z,28.95
2022-11-26T21:29:07.130Z,25.23
2022-11-26T21:31:37.743Z,22.75
2022-11-26T21:34:08.304Z,23.67
2022-11-26T21:36:38.249Z,22.63
2022-11-26T21:39:08.085Z,23.65
2022-11-26T21:41:38.368Z,27.65
2022-11-26T21:44:08.578Z,29.92
2022-11-26T21:46:39.601Z,25.83
2022-11-26T21:49:09.002Z,27.60
2022-11-26T21:51:37.613Z,25.08
2022-11-26T21:54:06.435Z,24.95
2022-11-26T21:56:35.201Z,24.70
2022-11-26T21:59:05.497Z,24.95
2022-11-26T22:01:35.336Z,24.20
2022-11-26T22:04:07.560Z,23.52
2022-11-26T22:06:39.806Z,24.70
2022-11-26T22:09:09.279Z,23.70
2022-11-26T22:11:40.045Z,25.38
2022-11-26T22:14:09.510Z,21.85
2022-11-26T22:16:38.183Z,21.85
2022-11-26T22:19:08.130Z,21.40
2022-11-26T22:21:38.695Z,24.30
2022-11-26T22:24:09.538Z,18.88
2022-11-26T22:26:38.767Z,20.00
2022-11-26T22:29:09.291Z,19.38
2022-11-26T22:31:39.858Z,17.90
2022-11-26T22:34:11.812Z,21.35
2022-11-26T22:36:41.708Z,18.35
2022-11-26T22:39:13.130Z,15.95
2022-11-26T22:41:42.595Z,15.13
2022-11-26T22:44:12.260Z,14.70
2022-11-26T22:46:40.453Z,15.13
2022-11-26T22:49:13.329Z,15.70
2022-11-26T22:51:41.600Z,14.65
2022-11-26T22:54:13.227Z,15.50
2022-11-26T22:56:41.655Z,16.17
2022-11-26T22:59:12.822Z,14.93
2022-11-26T23:01:42.490Z,15.52
2022-11-26T23:04:12.407Z,15.63
2022-11-26T23:06:41.104Z,15.43
2022-11-26T23:09:10.952Z,15.93
2022-11-26T23:11:41.564Z,14.90
2022-11-26T23:14:11.876Z,15.55
2022-11-26T23:16:41.800Z,15.18
2022-11-26T23:19:14.001Z,15.75
2022-11-26T23:21:43.727Z,17.10
2022-11-26T23:24:13.682Z,15.98
2022-11-26T23:26:42.858Z,15.57
2022-11-26T23:29:12.140Z,16.23
2022-11-26T23:31:44.610Z,16.17
2022-11-26T23:34:15.506Z,16.58
2022-11-26T23:36:44.343Z,16.48
2022-11-26T23:39:14.593Z,16.10
2022-11-26T23:41:43.759Z,15.35
2022-11-26T23:44:12.191Z,15.55
2022-11-26T23:46:40.933Z,16.02
2022-11-26T23:49:09.260Z,15.55
2022-11-26T23:51:39.197Z,15.80
2022-11-26T23:54:07.455Z,14.13
2022-11-26T23:56:36.832Z,14.82
2022-11-26T23:59:06.235Z,16.80
